Time;durP1;ratioP1;P1;durP2;ratioP2;P2;SDS_P1;SDS_P2;PMS_P1;PMS_P2;Temp;Humidity;BMP_temperature;BMP_pressure;BME280_temperature;BME280_humidity;BME280_pressure;Samples;Min_cycle;Max_cycle;Signal;HPM_P1;HPM_P2
2023/05/24 00:00:39;;;;;;;;;;;;;;;;;;4943467;28;20432;-71
2023/05/24 00:03:05;;;;;;;;;;;;;;;;;;4936391;28;19924;-70
2023/05/24 00:05:31;;;;;;;;;;;;;;;;;;4962515;28;19913;-73
2023/05/24 00:07:58;;;;;;;;;;;;;;;;;;4975997;28;19909;-73
2023/05/24 00:10:24;;;;;;;;;;;;;;;;;;4979507;28;19917;-71
2023/05/24 00:12:50;;;;;;;;;;;;;;;;;;4981510;28;19917;-71
2023/05/24 00:15:16;;;;;;;;;;;;;;;;;;4978501;28;20398;-71
2023/05/24 00:17:42;;;;;;;;;;;;;;;;;;4975793;28;19997;-71
2023/05/24 00:20:09;;;;;;;;;;;;;;;;;;4978097;28;20622;-71
2023/05/24 00:22:36;;;;;;;;;;;;;;;;;;4982146;28;20195;-71
2023/05/24 00:25:04;;;;;;;;;;;;;;;;;;4980060;28;20042;-70
2023/05/24 00:27:30;;;;;;;;;;;;;;;;;;4978651;28;19952;-70
2023/05/24 00:29:56;;;;;;;;;;;;;;;;;;4979586;28;19917;-71
2023/05/24 00:32:22;;;;;;;;;;;;;;;;;;4981512;28;19968;-71
2023/05/24 00:34:47;;;;;;;;;;;;;;;;;;4983100;28;20250;-72
2023/05/24 00:37:13;;;;;;;;;;;;;;;;;;4981264;28;20020;-73
2023/05/24 00:39:40;;;;;;;;;;;;;;;;;;4982001;28;20367;-72
2023/05/24 00:42:06;;;;;;;;;;;;;;;;;;4976671;28;19995;-72
2023/05/24 00:44:32;;;;;;;;;;;;;;;;;;4982643;28;20432;-72
2023/05/24 00:46:58;;;;;;;;;;;;;;;;;;4979474;28;20299;-72
2023/05/24 00:49:24;;;;;;;;;;;;;;;;;;4981987;28;20234;-72
2023/05/24 00:51:50;;;;;;;;;;;;;;;;;;4983483;28;20035;-72
2023/05/24 00:54:16;;;;;;;;;;;;;;;;;;4978606;28;20071;-72
2023/05/24 00:56:42;;;;;;;;;;;;;;;;;;4980129;28;20224;-71
2023/05/24 00:59:08;;;;;;;;;;;;;;;;;;4978907;28;20166;-72
2023/05/24 01:01:34;;;;;;;;;;;;;;;;;;4982727;28;19975;-70
2023/05/24 01:04:00;;;;;;;;;;;;;;;;;;4980676;28;20487;-70
2023/05/24 01:06:26;;;;;;;;;;;;;;;;;;4985975;28;19913;-70
2023/05/24 01:08:52;;;;;;;;;;;;;;;;;;4982315;28;19917;-70
2023/05/24 01:11:18;;;;;;;;;;;;;;;;;;4978545;28;19920;-70
2023/05/24 01:13:46;;;;;;;;;;;;;;;;;;4981072;28;19921;-69
2023/05/24 01:16:12;;;;;;;;;;;;;;;;;;4977843;28;19920;-72
2023/05/24 01:18:38;;;;;;;;;;;;;;;;;;4984254;28;19972;-71
2023/05/24 01:21:05;;;;;;;;;;;;;;;;;;4979781;28;19922;-70
2023/05/24 01:23:33;;;;;;;;;;;;;;;;;;4985854;28;19921;-69
2023/05/24 01:25:59;;;;;;;;;;;;;;;;;;4980219;28;19917;-71
2023/05/24 01:28:25;;;;;;;;;;;;;;;;;;4986141;28;19917;-72
2023/05/24 01:30:51;;;;;;;;;;;;;;;;;;4977140;28;20007;-72
2023/05/24 01:33:16;;;;;;;;;;;;;;;;;;4980806;28;20331;-71
2023/05/24 01:35:42;;;;;;;;;;;;;;;;;;4996117;28;20663;-72
2023/05/24 01:38:11;;;;;;;;;;;;;;;;;;4980397;28;20339;-71
2023/05/24 01:40:37;;;;;;;;;;;;;;;;;;4983323;28;19948;-72
2023/05/24 01:43:03;;;;;;;;;;;;;;;;;;4977547;28;19917;-70
2023/05/24 01:45:29;;;;;;;;;;;;;;;;;;4979634;28;20296;-70
2023/05/24 01:47:55;;;;;;;;;;;;;;;;;;4978492;28;20318;-70
2023/05/24 01:50:21;;;;;;;;;;;;;;;;;;5011257;28;19917;-70
2023/05/24 01:52:47;;;;;;;;;;;;;;;;;;4980926;28;20438;-70
2023/05/24 01:55:13;;;;;;;;;;;;;;;;;;4976043;28;20323;-71
2023/05/24 01:57:40;;;;;;;;;;;;;;;;;;4980764;28;20157;-70
2023/05/24 02:00:06;;;;;;;;;;;;;;;;;;4978232;28;19945;-69
2023/05/24 02:02:32;;;;;;;;;;;;;;;;;;4984198;28;20012;-69
2023/05/24 02:04:58;;;;;;;;;;;;;;;;;;4979078;28;20369;-69
2023/05/24 02:07:25;;;;;;;;;;;;;;;;;;4983590;28;19987;-70
2023/05/24 02:09:51;;;;;;;;;;;;;;;;;;4980754;28;19914;-70
2023/05/24 02:12:17;;;;;;;;;;;;;;;;;;4978913;28;20326;-70
2023/05/24 02:14:43;;;;;;;;;;;;;;;;;;4981558;28;20383;-70
2023/05/24 02:17:09;;;;;;;;;;;;;;;;;;5005441;28;19928;-71
2023/05/24 02:19:36;;;;;;;;;;;;;;;;;;4981836;28;20368;-70
2023/05/24 02:22:02;;;;;;;;;;;;;;;;;;4978893;28;19925;-70
2023/05/24 02:24:28;;;;;;;;;;;;;;;;;;4982333;28;19926;-71
2023/05/24 02:26:55;;;;;;;;;;;;;;;;;;4984460;28;19917;-70
2023/05/24 02:29:21;;;;;;;;;;;;;;;;;;4983756;28;19913;-70
2023/05/24 02:31:50;;;;;;;;;;;;;;;;;;4982607;28;19917;-71
2023/05/24 02:34:16;;;;;;;;;;;;;;;;;;4979992;28;20425;-70
2023/05/24 02:36:44;;;;;;;;;;;;;;;;;;4982345;28;19913;-71
2023/05/24 02:39:10;;;;;;;;;;;;;;;;;;4975541;28;20436;-71
2023/05/24 02:41:36;;;;;;;;;;;;;;;;;;4981772;28;19921;-71
2023/05/24 02:44:02;;;;;;;;;;;;;;;;;;4977365;28;19948;-71
2023/05/24 02:46:28;;;;;;;;;;;;;;;;;;4978293;28;20069;-71
2023/05/24 02:48:54;;;;;;;;;;;;;;;;;;4980460;28;19917;-71
2023/05/24 02:51:20;;;;;;;;;;;;;;;;;;4979631;28;19917;-72
2023/05/24 02:53:46;;;;;;;;;;;;;;;;;;4981222;28;20357;-71
2023/05/24 02:56:18;;;;;;;;;;;;;;;;;;4976728;28;20016;-71
2023/05/24 02:58:44;;;;;;;;;;;;;;;;;;4982759;28;19913;-71
2023/05/24 03:01:11;;;;;;;;;;;;;;;;;;4980442;28;19913;-71
2023/05/24 03:03:37;;;;;;;;;;;;;;;;;;4981946;28;20259;-71
2023/05/24 03:06:03;;;;;;;;;;;;;;;;;;4979194;28;19914;-71
2023/05/24 03:08:32;;;;;;;;;;;;;;;;;;4980157;28;20285;-70
2023/05/24 03:10:58;;;;;;;;;;;;;;;;;;5004349;28;20336;-71
2023/05/24 03:13:24;;;;;;;;;;;;;;;;;;4981015;28;20341;-70
2023/05/24 03:15:50;;;;;;;;;;;;;;;;;;4994111;28;20012;-71
2023/05/24 03:18:16;;;;;;;;;;;;;;;;;;4978300;28;19928;-70
2023/05/24 03:20:42;;;;;;;;;;;;;;;;;;4982157;28;19909;-71
2023/05/24 03:23:08;;;;;;;;;;;;;;;;;;4977776;28;20706;-70
2023/05/24 03:25:34;;;;;;;;;;;;;;;;;;4982500;28;19998;-71
2023/05/24 03:28:01;;;;;;;;;;;;;;;;;;4974102;28;20367;-71
2023/05/24 03:30:27;;;;;;;;;;;;;;;;;;4981952;28;19913;-71
2023/05/24 03:32:53;;;;;;;;;;;;;;;;;;4980539;28;20451;-71
2023/05/24 03:35:19;;;;;;;;;;;;;;;;;;4975962;28;20289;-71
2023/05/24 03:37:45;;;;;;;;;;;;;;;;;;4982398;28;19919;-71
2023/05/24 03:40:11;;;;;;;;;;;;;;;;;;4976981;28;20372;-71
2023/05/24 03:42:37;;;;;;;;;;;;;;;;;;4977144;28;20376;-71
2023/05/24 03:45:03;;;;;;;;;;;;;;;;;;4974578;28;19921;-70
2023/05/24 03:47:29;;;;;;;;;;;;;;;;;;4977454;28;20535;-70
2023/05/24 03:49:55;;;;;;;;;;;;;;;;;;4977774;28;20365;-70
2023/05/24 03:52:21;;;;;;;;;;;;;;;;;;4978153;28;20040;-71
2023/05/24 03:54:48;;;;;;;;;;;;;;;;;;5003684;28;20416;-71
2023/05/24 03:57:14;;;;;;;;;;;;;;;;;;4977010;28;19928;-71
2023/05/24 03:59:40;;;;;;;;;;;;;;;;;;4981399;28;19914;-71
2023/05/24 04:02:06;;;;;;;;;;;;;;;;;;4976091;28;20621;-70
2023/05/24 04:04:32;;;;;;;;;;;;;;;;;;4980353;28;20007;-71
2023/05/24 04:06:58;;;;;;;;;;;;;;;;;;4973246;28;19920;-70
2023/05/24 04:09:24;;;;;;;;;;;;;;;;;;4980084;28;20248;-71
2023/05/24 04:11:50;;;;;;;;;;;;;;;;;;4981043;28;19967;-71
2023/05/24 04:14:16;;;;;;;;;;;;;;;;;;4974792;28;20782;-71
2023/05/24 04:16:43;;;;;;;;;;;;;;;;;;4978241;28;19917;-71
2023/05/24 04:19:09;;;;;;;;;;;;;;;;;;4975637;28;19913;-70
2023/05/24 04:21:36;;;;;;;;;;;;;;;;;;4977022;28;19937;-70
2023/05/24 04:24:02;;;;;;;;;;;;;;;;;;4978214;28;20015;-69
2023/05/24 04:26:28;;;;;;;;;;;;;;;;;;4982963;28;19917;-69
2023/05/24 04:28:55;;;;;;;;;;;;;;;;;;4979764;28;19913;-70
2023/05/24 04:31:21;;;;;;;;;;;;;;;;;;4977777;28;19913;-70
2023/05/24 04:33:47;;;;;;;;;;;;;;;;;;4981576;28;19913;-70
2023/05/24 04:36:13;;;;;;;;;;;;;;;;;;4980444;28;19913;-71
2023/05/24 04:38:39;;;;;;;;;;;;;;;;;;4982712;28;19940;-70
2023/05/24 04:41:05;;;;;;;;;;;;;;;;;;4975821;28;20052;-71
2023/05/24 04:43:31;;;;;;;;;;;;;;;;;;4978216;28;19917;-70
2023/05/24 04:45:57;;;;;;;;;;;;;;;;;;4974788;28;20397;-70
2023/05/24 04:48:23;;;;;;;;;;;;;;;;;;4982061;28;19920;-71
2023/05/24 04:50:49;;;;;;;;;;;;;;;;;;4984321;28;20362;-71
2023/05/24 04:53:15;;;;;;;;;;;;;;;;;;4980955;28;20706;-70
2023/05/24 04:55:41;;;;;;;;;;;;;;;;;;4980695;28;19924;-72
2023/05/24 04:58:07;;;;;;;;;;;;;;;;;;4978201;28;20476;-72
2023/05/24 05:00:33;;;;;;;;;;;;;;;;;;4983050;28;20728;-72
2023/05/24 05:02:59;;;;;;;;;;;;;;;;;;4985439;28;20399;-72
2023/05/24 05:05:25;;;;;;;;;;;;;;;;;;4985104;28;19920;-72
2023/05/24 05:07:51;;;;;;;;;;;;;;;;;;4985970;28;20518;-72
2023/05/24 05:10:17;;;;;;;;;;;;;;;;;;4984189;28;19913;-72
2023/05/24 05:12:43;;;;;;;;;;;;;;;;;;4983140;28;20369;-72
2023/05/24 05:15:09;;;;;;;;;;;;;;;;;;4980375;28;19991;-72
2023/05/24 05:17:35;;;;;;;;;;;;;;;;;;4984974;28;19913;-72
2023/05/24 05:20:01;;;;;;;;;;;;;;;;;;4980046;28;20455;-71
2023/05/24 05:22:27;;;;;;;;;;;;;;;;;;4984647;28;19916;-73
2023/05/24 05:24:53;;;;;;;;;;;;;;;;;;4984124;28;19921;-72
2023/05/24 05:27:19;;;;;;;;;;;;;;;;;;4978390;28;19917;-73
2023/05/24 05:29:45;;;;;;;;;;;;;;;;;;4982882;28;20435;-73
2023/05/24 05:32:11;;;;;;;;;;;;;;;;;;4981588;28;20913;-71
2023/05/24 05:34:37;;;;;;;;;;;;;;;;;;4981464;28;19917;-72
2023/05/24 05:37:03;;;;;;;;;;;;;;;;;;4978574;28;19924;-71
2023/05/24 05:39:30;;;;;;;;;;;;;;;;;;4982580;28;19913;-72
2023/05/24 05:41:56;;;;;;;;;;;;;;;;;;4978958;28;20562;-72
2023/05/24 05:44:22;;;;;;;;;;;;;;;;;;4984061;28;19925;-72
2023/05/24 05:46:48;;;;;;;;;;;;;;;;;;4983638;28;20339;-72
2023/05/24 05:49:15;;;;;;;;;;;;;;;;;;4981723;28;19924;-74
2023/05/24 05:51:41;;;;;;;;;;;;;;;;;;4983645;28;19913;-73
2023/05/24 05:54:14;;;;;;;;;;;;;;;;;;4980002;28;20957;-73
2023/05/24 05:56:44;;;;;;;;;;;;;;;;;;4981678;28;19956;-73
2023/05/24 05:59:10;;;;;;;;;;;;;;;;;;4982088;28;19921;-73
2023/05/24 06:01:36;;;;;;;;;;;;;;;;;;4984101;28;19941;-73
2023/05/24 06:04:02;;;;;;;;;;;;;;;;;;4982854;28;19944;-73
2023/05/24 06:06:28;;;;;;;;;;;;;;;;;;4985419;28;20762;-73
2023/05/24 06:08:54;;;;;;;;;;;;;;;;;;4981968;28;19921;-73
2023/05/24 06:11:20;;;;;;;;;;;;;;;;;;4978776;28;20027;-73
2023/05/24 06:13:45;;;;;;;;;;;;;;;;;;4984789;28;19914;-73
2023/05/24 06:16:13;;;;;;;;;;;;;;;;;;4981508;28;19925;-74
2023/05/24 06:18:39;;;;;;;;;;;;;;;;;;4985679;28;19909;-72
2023/05/24 06:21:09;;;;;;;;;;;;;;;;;;4977107;28;20195;-72
2023/05/24 06:23:35;;;;;;;;;;;;;;;;;;4980971;28;20150;-72
2023/05/24 06:26:01;;;;;;;;;;;;;;;;;;4977953;28;19921;-71
2023/05/24 06:28:27;;;;;;;;;;;;;;;;;;4983973;28;20001;-74
2023/05/24 06:30:53;;;;;;;;;;;;;;;;;;4985884;28;20352;-72
2023/05/24 06:33:19;;;;;;;;;;;;;;;;;;4976410;28;20206;-72
2023/05/24 06:35:45;;;;;;;;;;;;;;;;;;4982509;28;19921;-73
2023/05/24 06:38:11;;;;;;;;;;;;;;;;;;4977795;28;20384;-72
2023/05/24 06:40:37;;;;;;;;;;;;;;;;;;4983790;28;19967;-72
2023/05/24 06:43:03;;;;;;;;;;;;;;;;;;4976345;28;20494;-72
2023/05/24 06:45:29;;;;;;;;;;;;;;;;;;4980036;28;20337;-72
2023/05/24 06:47:55;;;;;;;;;;;;;;;;;;4979338;28;19963;-72
2023/05/24 06:50:21;;;;;;;;;;;;;;;;;;4983757;28;19922;-72
2023/05/24 06:52:47;;;;;;;;;;;;;;;;;;5010094;28;19948;-72
2023/05/24 06:55:13;;;;;;;;;;;;;;;;;;4982102;28;20527;-72
2023/05/24 06:57:39;;;;;;;;;;;;;;;;;;4982887;28;20424;-72
2023/05/24 07:00:11;;;;;;;;;;;;;;;;;;4981000;28;19995;-72
2023/05/24 07:02:37;;;;;;;;;;;;;;;;;;4983769;28;19917;-73
2023/05/24 07:05:03;;;;;;;;;;;;;;;;;;4978349;28;19923;-72
2023/05/24 07:07:29;;;;;;;;;;;;;;;;;;5015039;28;19913;-71
2023/05/24 07:09:55;;;;;;;;;;;;;;;;;;4980932;28;19913;-72
2023/05/24 07:12:22;;;;;;;;;;;;;;;;;;4982306;28;20296;-72
2023/05/24 07:14:48;;;;;;;;;;;;;;;;;;4982824;28;19913;-72
2023/05/24 07:17:14;;;;;;;;;;;;;;;;;;4979320;28;19920;-72
2023/05/24 07:19:40;;;;;;;;;;;;;;;;;;4981095;28;19921;-72
2023/05/24 07:22:07;;;;;;;;;;;;;;;;;;4980615;28;19921;-73
2023/05/24 07:24:33;;;;;;;;;;;;;;;;;;4981874;28;19925;-73
2023/05/24 07:26:59;;;;;;;;;;;;;;;;;;4981493;28;20437;-72
2023/05/24 07:29:25;;;;;;;;;;;;;;;;;;4984654;28;19914;-72
2023/05/24 07:31:51;;;;;;;;;;;;;;;;;;4981203;28;20977;-72
2023/05/24 07:34:17;;;;;;;;;;;;;;;;;;4977643;28;19965;-72
2023/05/24 07:36:44;;;;;;;;;;;;;;;;;;4980394;28;19913;-72
2023/05/24 07:39:13;;;;;;;;;;;;;;;;;;4980277;28;20078;-72
2023/05/24 07:41:40;;;;;;;;;;;;;;;;;;4980818;28;19913;-72
2023/05/24 07:44:06;;;;;;;;;;;;;;;;;;4979416;28;20373;-74
2023/05/24 07:46:32;;;;;;;;;;;;;;;;;;4977623;28;19914;-72
2023/05/24 07:48:58;;;;;;;;;;;;;;;;;;4974467;28;19928;-72
2023/05/24 07:51:25;;;;;;;;;;;;;;;;;;4978050;28;20348;-72
2023/05/24 07:53:51;;;;;;;;;;;;;;;;;;4977982;28;20538;-72
2023/05/24 07:56:17;;;;;;;;;;;;;;;;;;5005253;28;19928;-75
2023/05/24 07:58:45;;;;;;;;;;;;;;;;;;4978624;28;20349;-73
2023/05/24 08:01:12;;;;;;;;;;;;;;;;;;4978104;28;20256;-74
2023/05/24 08:03:38;;;;;;;;;;;;;;;;;;4977800;28;19928;-73
2023/05/24 08:06:04;;;;;;;;;;;;;;;;;;4976523;28;20370;-72
2023/05/24 08:08:30;;;;;;;;;;;;;;;;;;4980138;28;19913;-72
2023/05/24 08:10:56;;;;;;;;;;;;;;;;;;4979642;28;19914;-72
2023/05/24 08:13:22;;;;;;;;;;;;;;;;;;4976746;28;19921;-73
2023/05/24 08:15:48;;;;;;;;;;;;;;;;;;4978853;28;19995;-73
2023/05/24 08:18:14;;;;;;;;;;;;;;;;;;4977216;28;20027;-72
2023/05/24 08:20:43;;;;;;;;;;;;;;;;;;4981289;28;19913;-73
2023/05/24 08:23:09;;;;;;;;;;;;;;;;;;4977683;28;19932;-72
2023/05/24 08:25:35;;;;;;;;;;;;;;;;;;4979185;28;19917;-72
2023/05/24 08:28:01;;;;;;;;;;;;;;;;;;4977771;28;19913;-72
2023/05/24 08:30:27;;;;;;;;;;;;;;;;;;4982255;28;20549;-72
2023/05/24 08:32:53;;;;;;;;;;;;;;;;;;4981670;28;20485;-72
2023/05/24 08:35:19;;;;;;;;;;;;;;;;;;4980386;28;19936;-72
2023/05/24 08:37:46;;;;;;;;;;;;;;;;;;4982067;28;19913;-72
2023/05/24 08:40:13;;;;;;;;;;;;;;;;;;4981877;28;19925;-72
2023/05/24 08:42:39;;;;;;;;;;;;;;;;;;4981068;28;19920;-72
2023/05/24 08:45:06;;;;;;;;;;;;;;;;;;4981751;28;20053;-72
2023/05/24 08:47:32;;;;;;;;;;;;;;;;;;4982854;28;20435;-71
2023/05/24 08:49:58;;;;;;;;;;;;;;;;;;4980088;28;20287;-71
2023/05/24 08:52:24;;;;;;;;;;;;;;;;;;4987849;28;19921;-72
2023/05/24 08:54:50;;;;;;;;;;;;;;;;;;4981644;28;19925;-72
2023/05/24 08:57:16;;;;;;;;;;;;;;;;;;4977949;28;20176;-73
2023/05/24 08:59:42;;;;;;;;;;;;;;;;;;4981669;28;19914;-72
2023/05/24 09:02:07;;;;;;;;;;;;;;;;;;4979835;28;19975;-72
2023/05/24 09:04:33;;;;;;;;;;;;;;;;;;4983510;28;20369;-71
2023/05/24 09:06:59;;;;;;;;;;;;;;;;;;4979296;28;19920;-72
2023/05/24 09:09:25;;;;;;;;;;;;;;;;;;4997451;28;19913;-72
2023/05/24 09:11:51;;;;;;;;;;;;;;;;;;4985850;28;19932;-71
2023/05/24 09:14:17;;;;;;;;;;;;;;;;;;4975667;28;20274;-71
2023/05/24 09:16:43;;;;;;;;;;;;;;;;;;4995973;28;19914;-72
2023/05/24 09:19:10;;;;;;;;;;;;;;;;;;4983401;28;20032;-71
2023/05/24 09:21:35;;;;;;;;;;;;;;;;;;4982763;28;20367;-71
2023/05/24 09:24:01;;;;;;;;;;;;;;;;;;4979931;28;20694;-72
2023/05/24 09:26:29;;;;;;;;;;;;;;;;;;4980888;28;19921;-70
2023/05/24 09:28:56;;;;;;;;;;;;;;;;;;4982594;28;20028;-70
2023/05/24 09:31:22;;;;;;;;;;;;;;;;;;4984657;28;20487;-70
2023/05/24 09:33:48;;;;;;;;;;;;;;;;;;4985268;28;19917;-69
2023/05/24 09:36:14;;;;;;;;;;;;;;;;;;4980400;28;19920;-69
2023/05/24 09:38:40;;;;;;;;;;;;;;;;;;4979870;28;19963;-69
2023/05/24 09:41:07;;;;;;;;;;;;;;;;;;4977181;28;20243;-69
2023/05/24 09:43:33;;;;;;;;;;;;;;;;;;4981013;28;20151;-69
2023/05/24 09:46:00;;;;;;;;;;;;;;;;;;4976471;28;19945;-70
2023/05/24 09:48:26;;;;;;;;;;;;;;;;;;4982611;28;19909;-70
2023/05/24 09:50:52;;;;;;;;;;;;;;;;;;4987837;28;20367;-71
2023/05/24 09:53:18;;;;;;;;;;;;;;;;;;4979785;28;20374;-69
2023/05/24 09:55:44;;;;;;;;;;;;;;;;;;4985856;28;19999;-69
2023/05/24 09:58:11;;;;;;;;;;;;;;;;;;4982510;28;19918;-69
2023/05/24 10:00:39;;;;;;;;;;;;;;;;;;4983520;28;19987;-69
2023/05/24 10:03:06;;;;;;;;;;;;;;;;;;4981714;28;20314;-69
2023/05/24 10:05:31;;;;;;;;;;;;;;;;;;4982801;28;20283;-69
2023/05/24 10:07:57;;;;;;;;;;;;;;;;;;4979999;28;19913;-69
2023/05/24 10:10:23;;;;;;;;;;;;;;;;;;5010769;28;19940;-69
2023/05/24 10:12:49;;;;;;;;;;;;;;;;;;4984844;28;19913;-69
2023/05/24 10:15:15;;;;;;;;;;;;;;;;;;4976298;28;19995;-70
2023/05/24 10:17:41;;;;;;;;;;;;;;;;;;4985156;28;19913;-70
2023/05/24 10:20:09;;;;;;;;;;;;;;;;;;4979087;28;19932;-70
2023/05/24 10:22:36;;;;;;;;;;;;;;;;;;4984102;28;20269;-70
2023/05/24 10:25:03;;;;;;;;;;;;;;;;;;4978333;28;20369;-70
2023/05/24 10:27:30;;;;;;;;;;;;;;;;;;4980981;28;19913;-71
2023/05/24 10:29:58;;;;;;;;;;;;;;;;;;4994733;28;20323;-70
2023/05/24 10:32:24;;;;;;;;;;;;;;;;;;4981493;28;19917;-70
2023/05/24 10:34:50;;;;;;;;;;;;;;;;;;4983416;28;19913;-70
2023/05/24 10:37:16;;;;;;;;;;;;;;;;;;4979247;28;19925;-69
2023/05/24 10:39:42;;;;;;;;;;;;;;;;;;4982037;28;20336;-69
2023/05/24 10:42:08;;;;;;;;;;;;;;;;;;4978986;28;20023;-69
2023/05/24 10:44:34;;;;;;;;;;;;;;;;;;4983470;28;19924;-69
2023/05/24 10:47:00;;;;;;;;;;;;;;;;;;4978623;28;19971;-69
2023/05/24 10:49:26;;;;;;;;;;;;;;;;;;4980761;28;20474;-69
2023/05/24 10:51:52;;;;;;;;;;;;;;;;;;4982103;28;19913;-69
2023/05/24 10:54:18;;;;;;;;;;;;;;;;;;4978982;28;19913;-70
2023/05/24 10:56:45;;;;;;;;;;;;;;;;;;4998258;28;20436;-69
2023/05/24 10:59:11;;;;;;;;;;;;;;;;;;4981887;28;20649;-69
2023/05/24 11:01:37;;;;;;;;;;;;;;;;;;4984315;28;20003;-69
2023/05/24 11:04:03;;;;;;;;;;;;;;;;;;4979382;28;19995;-69
2023/05/24 11:06:29;;;;;;;;;;;;;;;;;;4982109;28;20063;-69
2023/05/24 11:08:55;;;;;;;;;;;;;;;;;;4981134;28;19944;-69
2023/05/24 11:11:22;;;;;;;;;;;;;;;;;;4985010;28;20340;-69
2023/05/24 11:13:48;;;;;;;;;;;;;;;;;;4982764;28;19917;-69
2023/05/24 11:16:14;;;;;;;;;;;;;;;;;;4980186;28;19948;-69
2023/05/24 11:18:40;;;;;;;;;;;;;;;;;;4982978;28;20009;-69
2023/05/24 11:21:06;;;;;;;;;;;;;;;;;;4981112;28;19913;-70
2023/05/24 11:23:32;;;;;;;;;;;;;;;;;;4983561;28;20377;-69
2023/05/24 11:25:58;;;;;;;;;;;;;;;;;;4979524;28;19917;-69
2023/05/24 11:28:24;;;;;;;;;;;;;;;;;;4983491;28;19913;-69
2023/05/24 11:30:50;;;;;;;;;;;;;;;;;;4981157;28;20019;-69
2023/05/24 11:33:17;;;;;;;;;;;;;;;;;;4977270;28;20767;-69
2023/05/24 11:35:43;;;;;;;;;;;;;;;;;;4979356;28;20319;-69
2023/05/24 11:38:11;;;;;;;;;;;;;;;;;;4977872;28;20158;-69
2023/05/24 11:40:37;;;;;;;;;;;;;;;;;;4979512;28;20427;-69
2023/05/24 11:43:03;;;;;;;;;;;;;;;;;;4980561;28;20325;-69
2023/05/24 11:45:30;;;;;;;;;;;;;;;;;;4981251;28;19943;-69
2023/05/24 11:47:56;;;;;;;;;;;;;;;;;;4974089;28;19921;-69
2023/05/24 11:50:22;;;;;;;;;;;;;;;;;;4980788;28;19917;-69
2023/05/24 11:52:48;;;;;;;;;;;;;;;;;;4980199;28;19924;-68
2023/05/24 11:55:15;;;;;;;;;;;;;;;;;;4979447;28;20409;-70
2023/05/24 11:57:41;;;;;;;;;;;;;;;;;;4982552;28;20238;-70
2023/05/24 12:00:15;;;;;;;;;;;;;;;;;;4978809;28;19917;-70
2023/05/24 12:02:41;;;;;;;;;;;;;;;;;;4979189;28;19913;-69
2023/05/24 12:05:13;;;;;;;;;;;;;;;;;;4976257;28;19917;-70
2023/05/24 12:07:39;;;;;;;;;;;;;;;;;;4981148;28;19988;-69
2023/05/24 12:10:05;;;;;;;;;;;;;;;;;;4976440;28;19991;-69
2023/05/24 12:12:31;;;;;;;;;;;;;;;;;;4982617;28;19921;-69
2023/05/24 12:14:57;;;;;;;;;;;;;;;;;;4978862;28;20741;-69
2023/05/24 12:17:23;;;;;;;;;;;;;;;;;;4981202;28;19960;-69
2023/05/24 12:19:50;;;;;;;;;;;;;;;;;;4985242;28;19913;-69
2023/05/24 12:22:16;;;;;;;;;;;;;;;;;;4982891;28;19924;-69
2023/05/24 12:24:42;;;;;;;;;;;;;;;;;;4979352;28;19926;-68
2023/05/24 12:27:09;;;;;;;;;;;;;;;;;;5008246;28;20435;-68
2023/05/24 12:29:35;;;;;;;;;;;;;;;;;;4980925;28;19913;-68
2023/05/24 12:32:01;;;;;;;;;;;;;;;;;;4982880;28;20185;-68
2023/05/24 12:34:27;;;;;;;;;;;;;;;;;;4984943;28;20464;-68
2023/05/24 12:36:53;;;;;;;;;;;;;;;;;;4983100;28;19971;-69
2023/05/24 12:39:19;;;;;;;;;;;;;;;;;;4978219;28;20012;-68
2023/05/24 12:41:45;;;;;;;;;;;;;;;;;;4982125;28;20285;-68
2023/05/24 12:44:11;;;;;;;;;;;;;;;;;;4982621;28;19917;-68
2023/05/24 12:46:37;;;;;;;;;;;;;;;;;;4985304;28;19959;-70
2023/05/24 12:49:03;;;;;;;;;;;;;;;;;;4977603;28;20228;-70
2023/05/24 12:51:29;;;;;;;;;;;;;;;;;;4982329;28;20761;-70
2023/05/24 12:53:55;;;;;;;;;;;;;;;;;;4979850;28;19976;-69
2023/05/24 12:56:23;;;;;;;;;;;;;;;;;;4982261;28;19964;-69
2023/05/24 12:58:49;;;;;;;;;;;;;;;;;;4983647;28;19949;-69
2023/05/24 13:01:15;;;;;;;;;;;;;;;;;;4980063;28;21026;-69
2023/05/24 13:03:41;;;;;;;;;;;;;;;;;;4984174;28;20004;-70
2023/05/24 13:06:07;;;;;;;;;;;;;;;;;;4981421;28;20371;-70
2023/05/24 13:08:33;;;;;;;;;;;;;;;;;;4981096;28;20305;-70
2023/05/24 13:10:59;;;;;;;;;;;;;;;;;;4974874;28;19917;-70
2023/05/24 13:13:27;;;;;;;;;;;;;;;;;;4991545;28;20293;-70
2023/05/24 13:15:53;;;;;;;;;;;;;;;;;;4985451;28;20553;-70
2023/05/24 13:18:19;;;;;;;;;;;;;;;;;;4977845;28;19922;-69
2023/05/24 13:20:45;;;;;;;;;;;;;;;;;;4983925;28;20228;-69
2023/05/24 13:23:11;;;;;;;;;;;;;;;;;;4976537;28;19925;-69
2023/05/24 13:25:37;;;;;;;;;;;;;;;;;;4978330;28;19924;-69
2023/05/24 13:28:03;;;;;;;;;;;;;;;;;;4979922;28;19913;-69
2023/05/24 13:30:29;;;;;;;;;;;;;;;;;;4980668;28;20129;-69
2023/05/24 13:32:57;;;;;;;;;;;;;;;;;;4981815;28;20463;-68
2023/05/24 13:35:23;;;;;;;;;;;;;;;;;;4984130;28;19920;-69
2023/05/24 13:37:50;;;;;;;;;;;;;;;;;;4985482;28;19914;-69
2023/05/24 13:40:15;;;;;;;;;;;;;;;;;;4978985;28;20400;-69
2023/05/24 13:42:41;;;;;;;;;;;;;;;;;;4983216;28;20183;-70
2023/05/24 13:45:07;;;;;;;;;;;;;;;;;;4975467;28;20360;-68
2023/05/24 13:47:33;;;;;;;;;;;;;;;;;;4981335;28;19913;-68
2023/05/24 13:49:59;;;;;;;;;;;;;;;;;;4978730;28;20400;-68
2023/05/24 13:52:29;;;;;;;;;;;;;;;;;;4980669;28;19990;-70
2023/05/24 13:54:56;;;;;;;;;;;;;;;;;;4977730;28;19925;-70
2023/05/24 13:57:22;;;;;;;;;;;;;;;;;;4980389;28;20071;-70
2023/05/24 13:59:48;;;;;;;;;;;;;;;;;;4983202;28;20337;-69
2023/05/24 14:02:15;;;;;;;;;;;;;;;;;;4979511;28;19913;-69
2023/05/24 14:04:41;;;;;;;;;;;;;;;;;;4984678;28;19923;-68
2023/05/24 14:07:08;;;;;;;;;;;;;;;;;;4978364;28;19917;-68
2023/05/24 14:09:34;;;;;;;;;;;;;;;;;;4983660;28;19917;-68
2023/05/24 14:12:02;;;;;;;;;;;;;;;;;;4978842;28;20376;-71
2023/05/24 14:14:28;;;;;;;;;;;;;;;;;;4982829;28;20322;-70
2023/05/24 14:16:54;;;;;;;;;;;;;;;;;;4982451;28;20025;-69
2023/05/24 14:19:20;;;;;;;;;;;;;;;;;;4981370;28;20229;-69
2023/05/24 14:21:45;;;;;;;;;;;;;;;;;;4983693;28;19921;-69
2023/05/24 14:24:11;;;;;;;;;;;;;;;;;;4977179;28;19925;-69
2023/05/24 14:26:37;;;;;;;;;;;;;;;;;;4980714;28;20375;-69
2023/05/24 14:29:03;;;;;;;;;;;;;;;;;;4977871;28;20038;-70
2023/05/24 14:31:29;;;;;;;;;;;;;;;;;;4979311;28;19914;-71
2023/05/24 14:33:55;;;;;;;;;;;;;;;;;;4980840;28;20340;-71
2023/05/24 14:36:21;;;;;;;;;;;;;;;;;;4981982;28;20358;-71
2023/05/24 14:38:47;;;;;;;;;;;;;;;;;;4982060;28;19924;-71
2023/05/24 14:41:14;;;;;;;;;;;;;;;;;;4980198;28;20415;-71
2023/05/24 14:43:40;;;;;;;;;;;;;;;;;;4983662;28;19995;-71
2023/05/24 14:46:06;;;;;;;;;;;;;;;;;;4976577;28;19917;-69
2023/05/24 14:48:33;;;;;;;;;;;;;;;;;;4981728;28;20312;-69
2023/05/24 14:50:59;;;;;;;;;;;;;;;;;;4977201;28;20500;-69
2023/05/24 14:53:25;;;;;;;;;;;;;;;;;;4981740;28;19941;-71
2023/05/24 14:55:53;;;;;;;;;;;;;;;;;;4983384;28;20377;-71
2023/05/24 14:58:19;;;;;;;;;;;;;;;;;;4979792;28;19952;-69
2023/05/24 15:00:45;;;;;;;;;;;;;;;;;;4982625;28;19996;-69
2023/05/24 15:03:13;;;;;;;;;;;;;;;;;;4981919;28;19977;-70
2023/05/24 15:05:40;;;;;;;;;;;;;;;;;;4978409;28;19948;-70
2023/05/24 15:08:06;;;;;;;;;;;;;;;;;;4978666;28;19918;-69
2023/05/24 15:10:32;;;;;;;;;;;;;;;;;;4983199;28;19913;-69
2023/05/24 15:12:59;;;;;;;;;;;;;;;;;;4976994;28;19984;-70
2023/05/24 15:15:25;;;;;;;;;;;;;;;;;;4979240;28;20229;-69
2023/05/24 15:17:51;;;;;;;;;;;;;;;;;;4979510;28;20343;-70
2023/05/24 15:20:17;;;;;;;;;;;;;;;;;;4975651;28;20439;-69
2023/05/24 15:22:43;;;;;;;;;;;;;;;;;;4982291;28;20221;-70
2023/05/24 15:25:10;;;;;;;;;;;;;;;;;;4977267;28;20298;-70
2023/05/24 15:27:36;;;;;;;;;;;;;;;;;;4979914;28;20048;-70
2023/05/24 15:30:02;;;;;;;;;;;;;;;;;;4978277;28;19913;-69
2023/05/24 15:32:27;;;;;;;;;;;;;;;;;;5010949;28;19913;-70
2023/05/24 15:34:54;;;;;;;;;;;;;;;;;;4979805;28;19916;-70
2023/05/24 15:37:21;;;;;;;;;;;;;;;;;;4976168;28;19914;-70
2023/05/24 15:39:48;;;;;;;;;;;;;;;;;;5009728;28;19980;-70
2023/05/24 15:42:14;;;;;;;;;;;;;;;;;;4975105;28;19961;-69
2023/05/24 15:44:40;;;;;;;;;;;;;;;;;;4977284;28;19917;-70
2023/05/24 15:47:06;;;;;;;;;;;;;;;;;;4977200;28;19914;-70
2023/05/24 15:49:32;;;;;;;;;;;;;;;;;;4977556;28;19944;-70
2023/05/24 15:51:58;;;;;;;;;;;;;;;;;;4977792;28;20007;-72
2023/05/24 15:54:24;;;;;;;;;;;;;;;;;;4981800;28;19917;-70
2023/05/24 15:56:50;;;;;;;;;;;;;;;;;;4981244;28;19928;-69
2023/05/24 15:59:16;;;;;;;;;;;;;;;;;;4978651;28;19952;-71
2023/05/24 16:01:42;;;;;;;;;;;;;;;;;;4981735;28;19913;-70
2023/05/24 16:04:08;;;;;;;;;;;;;;;;;;4978310;28;19967;-71
2023/05/24 16:06:35;;;;;;;;;;;;;;;;;;4981168;28;20132;-70
2023/05/24 16:09:01;;;;;;;;;;;;;;;;;;4976572;28;20444;-72
2023/05/24 16:11:27;;;;;;;;;;;;;;;;;;4981345;28;19963;-72
2023/05/24 16:13:53;;;;;;;;;;;;;;;;;;4982357;28;19923;-72
2023/05/24 16:16:22;;;;;;;;;;;;;;;;;;4976325;28;20337;-71
2023/05/24 16:18:48;;;;;;;;;;;;;;;;;;4978595;28;19913;-71
2023/05/24 16:21:14;;;;;;;;;;;;;;;;;;4975352;28;19918;-71
2023/05/24 16:23:40;;;;;;;;;;;;;;;;;;4979852;28;20384;-71
2023/05/24 16:26:06;;;;;;;;;;;;;;;;;;4975240;28;19917;-71
2023/05/24 16:28:32;;;;;;;;;;;;;;;;;;4978985;28;19913;-71
2023/05/24 16:30:59;;;;;;;;;;;;;;;;;;4975144;28;19964;-71
2023/05/24 16:33:25;;;;;;;;;;;;;;;;;;4979383;28;19917;-71
2023/05/24 16:35:54;;;;;;;;;;;;;;;;;;4979540;28;19917;-70
2023/05/24 16:38:20;;;;;;;;;;;;;;;;;;4975735;28;19913;-70